Time;durP1;ratioP1;P1;durP2;ratioP2;P2;SDS_P1;SDS_P2;PMS_P1;PMS_P2;Temp;Humidity;BMP_temperature;BMP_pressure;BME280_temperature;BME280_humidity;BME280_pressure;Samples;Min_cycle;Max_cycle;Signal;HPM_P1;HPM_P2
2022/10/05 00:02:23;;;;;;;12.93;7.70;;;7.90;99.90;;;;;;5117990;28;20180;-81
2022/10/05 00:04:53;;;;;;;9.40;5.83;;;7.70;99.90;;;;;;5119340;28;20289;-82
2022/10/05 00:07:20;;;;;;;7.90;5.23;;;7.90;99.90;;;;;;5118190;28;20172;-83
2022/10/05 06:06:33;;;;;;;1.30;1.13;;;8.00;99.90;;;;;;5136996;27;20629;-84
2022/10/05 06:09:06;;;;;;;1.27;1.17;;;8.10;99.90;;;;;;5135340;27;20216;-81
2022/10/05 06:11:55;;;;;;;1.20;1.10;;;8.10;99.90;;;;;;5134325;28;20432;-83
2022/10/05 06:14:32;;;;;;;1.73;1.10;;;8.20;99.90;;;;;;5135486;27;20894;-83
2022/10/05 06:17:06;;;;;;;1.17;1.07;;;8.20;99.90;;;;;;5134084;28;20606;-83
2022/10/05 07:12:37;;;;;;;4.57;2.70;;;10.00;99.90;;;;;;5138142;27;20281;-86
2022/10/05 07:15:34;;;;;;;2.53;2.30;;;10.10;99.90;;;;;;5117945;28;20542;-85
2022/10/05 07:18:16;;;;;;;2.87;2.33;;;10.20;99.90;;;;;;5133937;28;20203;-84
2022/10/05 07:21:05;;;;;;;3.13;2.27;;;10.30;99.90;;;;;;5133519;28;20176;-86
2022/10/05 07:24:27;;;;;;;3.43;2.43;;;10.50;99.90;;;;;;5134441;28;20182;-84
2022/10/05 07:26:53;;;;;;;5.30;2.20;;;10.60;99.90;;;;;;5089916;28;20218;-85
2022/10/05 07:29:27;;;;;;;1.60;1.30;;;10.70;99.90;;;;;;5134379;27;20179;-85
2022/10/05 07:32:09;;;;;;;2.40;1.80;;;10.90;99.90;;;;;;5136025;27;20209;-85
2022/10/05 07:34:46;;;;;;;2.17;1.17;;;11.00;99.90;;;;;;5138112;27;20155;-86
2022/10/05 07:40:30;;;;;;;3.43;1.70;;;11.30;99.90;;;;;;5136346;28;20296;-85
2022/10/05 07:43:24;;;;;;;6.97;1.83;;;11.50;99.90;;;;;;5132467;28;20193;-86
2022/10/05 07:45:56;;;;;;;5.43;1.40;;;11.90;99.90;;;;;;5133067;28;20297;-85
2022/10/05 07:48:52;;;;;;;1.13;0.97;;;12.00;99.90;;;;;;5134554;27;20182;-85
2022/10/05 07:51:35;;;;;;;0.93;0.83;;;12.20;99.90;;;;;;5135594;27;20194;-85
2022/10/05 07:54:16;;;;;;;3.77;0.90;;;12.50;99.90;;;;;;5135206;28;20182;-87
2022/10/05 07:56:47;;;;;;;1.57;0.90;;;12.70;99.90;;;;;;5135570;28;20190;-86
2022/10/05 07:59:31;;;;;;;3.93;1.10;;;13.00;99.90;;;;;;5133143;28;20618;-85
2022/10/05 08:02:19;;;;;;;5.73;4.03;;;13.50;99.90;;;;;;5133687;28;20162;-86
2022/10/05 08:04:54;;;;;;;12.60;7.10;;;14.10;99.90;;;;;;5133715;27;20207;-86
2022/10/05 08:07:20;;;;;;;6.53;3.27;;;14.60;99.90;;;;;;5132451;28;20179;-84
2022/10/05 08:10:21;;;;;;;11.33;6.23;;;14.90;99.90;;;;;;5132836;28;20266;-85
2022/10/05 08:13:11;;;;;;;3.70;1.70;;;15.20;99.90;;;;;;5123022;28;20231;-87
2022/10/05 08:15:46;;;;;;;10.70;3.97;;;15.30;99.90;;;;;;5133644;28;20202;-84
2022/10/05 08:18:21;;;;;;;6.23;3.13;;;15.40;99.90;;;;;;5133008;28;20170;-85
2022/10/05 08:20:48;;;;;;;7.43;3.73;;;15.90;99.90;;;;;;5132412;28;20182;-84
2022/10/05 08:23:31;;;;;;;18.73;8.43;;;16.30;99.90;;;;;;5120746;28;20666;-86
2022/10/05 08:26:14;;;;;;;32.03;15.67;;;16.80;99.90;;;;;;5118701;28;20206;-86
2022/10/05 08:28:45;;;;;;;24.50;13.03;;;17.40;99.90;;;;;;5119938;27;20160;-84
2022/10/05 08:31:24;;;;;;;17.10;8.77;;;17.90;99.90;;;;;;5119101;28;20563;-83
2022/10/05 08:33:59;;;;;;;6.43;3.33;;;18.50;99.90;;;;;;5120822;28;20577;-85
2022/10/05 08:36:59;;;;;;;2.13;1.60;;;18.90;99.90;;;;;;5120615;28;20282;-84
2022/10/05 08:39:30;;;;;;;2.97;1.80;;;19.50;99.90;;;;;;5119998;28;20224;-85
2022/10/05 08:42:02;;;;;;;2.60;1.33;;;20.00;99.90;;;;;;5119644;28;20175;-84
2022/10/05 08:44:36;;;;;;;2.77;1.40;;;20.50;99.90;;;;;;5119006;28;20182;-86
2022/10/05 08:47:13;;;;;;;2.30;1.20;;;20.80;99.90;;;;;;5119661;28;20220;-83
2022/10/05 08:49:51;;;;;;;2.40;1.00;;;21.00;99.90;;;;;;5119874;28;20194;-84
2022/10/05 08:52:27;;;;;;;3.30;1.10;;;21.40;99.90;;;;;;5118904;28;20168;-85
2022/10/05 08:55:28;;;;;;;2.13;1.23;;;21.50;99.90;;;;;;5120532;28;20155;-84
2022/10/05 08:58:20;;;;;;;3.87;1.20;;;21.50;99.90;;;;;;5120722;28;20149;-86
2022/10/05 09:01:08;;;;;;;1.20;1.00;;;21.60;99.90;;;;;;5118739;28;20207;-85
2022/10/05 09:04:05;;;;;;;3.13;1.00;;;22.10;99.90;;;;;;5118971;28;20182;-83
2022/10/05 09:06:43;;;;;;;2.73;0.97;;;22.10;99.90;;;;;;5121904;28;20217;-81
2022/10/05 09:09:46;;;;;;;1.40;1.00;;;22.10;99.90;;;;;;5129060;28;20209;-80
2022/10/05 09:12:36;;;;;;;1.53;0.93;;;22.30;99.90;;;;;;5133208;28;20177;-79
2022/10/05 09:15:48;;;;;;;4.00;1.20;;;22.80;99.90;;;;;;5136481;28;20173;-86
2022/10/05 09:18:41;;;;;;;1.47;1.00;;;22.80;99.90;;;;;;5120867;28;20698;-85
2022/10/05 09:21:10;;;;;;;2.40;1.20;;;23.30;99.90;;;;;;5127224;28;20252;-82
2022/10/05 09:23:41;;;;;;;2.60;0.80;;;23.20;99.90;;;;;;5118783;28;20183;-85
2022/10/05 09:26:22;;;;;;;2.30;1.07;;;23.30;99.90;;;;;;5119485;28;20196;-83
2022/10/05 09:29:19;;;;;;;5.07;1.00;;;23.10;99.90;;;;;;5118646;28;20187;-86
2022/10/05 09:32:15;;;;;;;2.27;0.97;;;23.00;99.90;;;;;;5118830;28;20203;-85
2022/10/05 09:35:04;;;;;;;1.57;0.80;;;23.30;99.90;;;;;;5117439;28;20162;-84
2022/10/05 09:37:52;;;;;;;1.37;0.90;;;23.60;99.50;;;;;;5117066;28;20223;-82
2022/10/05 09:40:48;;;;;;;1.80;1.00;;;23.60;99.20;;;;;;5118400;28;20166;-85
2022/10/05 09:43:16;;;;;;;2.70;1.40;;;23.30;99.60;;;;;;5117315;28;20620;-84
2022/10/05 09:46:01;;;;;;;1.00;0.90;;;23.10;99.50;;;;;;5118125;28;20185;-85
2022/10/05 09:48:35;;;;;;;1.50;1.03;;;23.20;99.90;;;;;;5118210;28;20588;-83
2022/10/05 09:51:40;;;;;;;1.63;0.80;;;23.70;99.30;;;;;;5116638;28;20204;-85
2022/10/05 09:54:28;;;;;;;1.47;1.10;;;24.00;99.20;;;;;;5110188;28;20210;-84
2022/10/05 09:57:11;;;;;;;0.90;0.90;;;24.20;96.90;;;;;;5116347;28;20261;-84
2022/10/05 09:59:55;;;;;;;1.57;1.00;;;24.10;97.10;;;;;;5118091;28;20159;-85
2022/10/05 10:02:54;;;;;;;2.07;1.20;;;23.80;97.00;;;;;;5116799;28;20715;-85
2022/10/05 10:05:49;;;;;;;1.43;1.10;;;24.20;99.90;;;;;;5117622;28;20198;-86
2022/10/05 10:08:33;;;;;;;2.20;1.30;;;24.30;99.00;;;;;;5116116;28;20224;-84
2022/10/05 10:11:08;;;;;;;0.90;0.70;;;24.50;95.90;;;;;;5117255;28;20209;-83
2022/10/05 10:14:04;;;;;;;2.03;1.10;;;24.60;96.90;;;;;;5116875;28;20179;-85
2022/10/05 10:16:36;;;;;;;1.03;0.80;;;24.60;98.30;;;;;;5116214;28;20219;-83
2022/10/05 10:19:23;;;;;;;2.80;1.20;;;24.80;97.70;;;;;;5117530;28;20163;-84
2022/10/05 10:22:09;;;;;;;1.20;0.80;;;25.10;97.70;;;;;;5117618;27;20180;-83
2022/10/05 10:25:01;;;;;;;0.83;0.83;;;25.10;95.50;;;;;;5117775;28;20152;-83
2022/10/05 10:27:38;;;;;;;5.80;1.00;;;24.90;97.10;;;;;;5089671;28;20248;-82
2022/10/05 10:30:22;;;;;;;2.27;1.00;;;24.90;94.80;;;;;;5115621;28;20179;-83
2022/10/05 10:33:10;;;;;;;3.80;1.50;;;24.70;98.10;;;;;;5119090;28;20156;-84
2022/10/05 10:36:11;;;;;;;2.67;0.97;;;25.20;98.00;;;;;;5118885;28;20199;-85
2022/10/05 10:39:00;;;;;;;1.50;1.10;;;25.50;95.70;;;;;;5118010;28;20175;-83
2022/10/05 10:41:38;;;;;;;1.67;0.90;;;25.60;95.40;;;;;;5119500;28;20575;-83
2022/10/05 10:44:22;;;;;;;0.83;0.80;;;25.80;98.10;;;;;;5118137;28;20192;-85
2022/10/05 10:47:29;;;;;;;2.80;0.73;;;25.70;93.00;;;;;;5117703;28;20202;-85
2022/10/05 10:49:54;;;;;;;1.13;0.97;;;25.90;97.60;;;;;;5117837;28;20179;-84
2022/10/05 10:52:57;;;;;;;0.97;0.90;;;26.20;97.30;;;;;;5118538;28;20172;-86
2022/10/05 10:55:32;;;;;;;2.63;1.10;;;26.30;92.20;;;;;;5118988;28;20261;-85
2022/10/05 10:58:04;;;;;;;1.90;1.00;;;26.20;92.10;;;;;;5118651;28;20166;-86
2022/10/05 11:01:10;;;;;;;1.10;1.00;;;26.00;91.80;;;;;;5116891;28;20181;-85
2022/10/05 11:03:45;;;;;;;2.17;1.03;;;25.80;92.50;;;;;;5118712;28;20516;-85
2022/10/05 11:06:25;;;;;;;2.20;0.90;;;25.90;91.50;;;;;;5117047;28;20607;-83
2022/10/05 11:09:21;;;;;;;1.50;1.10;;;25.80;91.90;;;;;;5118228;28;20165;-84
2022/10/05 11:12:08;;;;;;;1.27;0.90;;;26.10;97.20;;;;;;5118726;28;20205;-85
2022/10/05 11:14:51;;;;;;;4.10;1.20;;;;;;;;;;5117268;28;20185;-83
2022/10/05 11:17:51;;;;;;;2.50;0.93;;;26.40;93.20;;;;;;5118400;28;20164;-86
2022/10/05 11:20:23;;;;;;;1.23;1.00;;;26.70;94.80;;;;;;5118335;28;20214;-87
2022/10/05 11:22:57;;;;;;;1.33;0.97;;;27.00;90.90;;;;;;5117770;28;20633;-84
2022/10/05 11:25:53;;;;;;;0.83;0.77;;;27.60;88.90;;;;;;5118390;28;20200;-84
2022/10/05 11:28:19;;;;;;;1.00;0.73;;;27.50;90.10;;;;;;5118536;28;20576;-85
2022/10/05 11:31:09;;;;;;;1.93;1.00;;;27.20;86.10;;;;;;5117904;28;20314;-84
2022/10/05 11:34:06;;;;;;;1.00;1.00;;;26.90;90.90;;;;;;5119380;28;20176;-85
2022/10/05 11:36:51;;;;;;;1.10;1.00;;;26.60;86.30;;;;;;5094180;28;20572;-87
2022/10/05 11:39:32;;;;;;;1.20;0.80;;;26.40;84.40;;;;;;5118202;28;20180;-85
2022/10/05 11:42:07;;;;;;;1.73;1.20;;;26.40;84.70;;;;;;5118898;28;20241;-82
2022/10/05 11:44:54;;;;;;;1.23;1.00;;;26.40;80.60;;;;;;5119419;28;20561;-83
2022/10/05 11:47:35;;;;;;;1.20;1.10;;;26.10;83.90;;;;;;5117663;28;20576;-83
2022/10/05 11:50:04;;;;;;;2.30;0.80;;;26.10;83.90;;;;;;5118550;28;20173;-84
2022/10/05 11:52:33;;;;;;;3.80;1.00;;;26.00;81.90;;;;;;5116516;28;20169;-81
2022/10/05 11:55:36;;;;;;;0.80;0.70;;;26.40;83.10;;;;;;5117876;28;20192;-81
2022/10/05 11:58:14;;;;;;;0.70;0.60;;;26.40;80.90;;;;;;5120907;28;20170;-84
2022/10/05 12:00:57;;;;;;;1.10;0.90;;;26.50;80.70;;;;;;5120413;28;20263;-83
2022/10/05 12:03:36;;;;;;;1.90;0.80;;;26.40;83.60;;;;;;5120875;28;20186;-83
2022/10/05 12:06:29;;;;;;;0.73;0.70;;;26.00;83.30;;;;;;5121755;28;20201;-84
2022/10/05 12:09:11;;;;;;;0.70;0.70;;;26.00;82.60;;;;;;5121575;28;20165;-81
2022/10/05 12:12:17;;;;;;;0.90;0.80;;;26.30;84.50;;;;;;5120500;28;20220;-82
2022/10/05 12:14:46;;;;;;;0.80;0.80;;;26.40;85.30;;;;;;5121174;28;20168;-84
2022/10/05 12:17:33;;;;;;;0.97;0.70;;;26.60;87.90;;;;;;5119934;28;20240;-83
2022/10/05 12:20:07;;;;;;;1.20;0.80;;;26.70;79.50;;;;;;5119699;28;20239;-82
2022/10/05 12:22:38;;;;;;;1.33;0.80;;;27.10;88.70;;;;;;5119327;28;20202;-81
2022/10/05 12:25:32;;;;;;;2.10;0.93;;;26.70;79.40;;;;;;5119008;28;20178;-83
2022/10/05 12:28:03;;;;;;;0.70;0.70;;;26.60;79.20;;;;;;5119408;28;20624;-84
2022/10/05 12:30:57;;;;;;;2.03;0.80;;;26.50;81.80;;;;;;5118279;28;20204;-84
2022/10/05 12:33:22;;;;;;;1.00;0.90;;;26.20;78.40;;;;;;5119145;28;20249;-83
2022/10/05 12:36:22;;;;;;;1.60;0.90;;;26.70;78.70;;;;;;5117832;28;20619;-84
2022/10/05 12:39:03;;;;;;;1.60;1.00;;;26.80;81.10;;;;;;5086541;28;20185;-84
2022/10/05 12:42:10;;;;;;;1.33;0.80;;;26.80;75.70;;;;;;5117937;28;20274;-82
2022/10/05 12:44:59;;;;;;;0.50;0.50;;;26.70;72.80;;;;;;5118212;28;20213;-86
2022/10/05 12:47:47;;;;;;;1.33;1.00;;;26.70;73.90;;;;;;5118763;28;20165;-84
2022/10/05 12:50:17;;;;;;;1.33;0.90;;;26.70;77.00;;;;;;5117330;28;20237;-83
2022/10/05 12:53:19;;;;;;;0.60;0.60;;;26.70;75.30;;;;;;5118247;28;20675;-81
2022/10/05 12:56:08;;;;;;;0.70;0.70;;;26.70;73.00;;;;;;5096832;28;20212;-84
2022/10/05 12:59:18;;;;;;;1.00;0.90;;;26.60;76.20;;;;;;5118972;28;20287;-84
2022/10/05 13:01:52;;;;;;;1.90;0.70;;;26.40;72.00;;;;;;5116547;28;20188;-82
2022/10/05 13:04:27;;;;;;;2.63;1.00;;;26.20;72.60;;;;;;5118282;27;20187;-83
2022/10/05 13:07:29;;;;;;;0.77;0.70;;;25.90;75.70;;;;;;5116574;28;20669;-82
2022/10/05 13:10:01;;;;;;;1.23;0.60;;;25.70;72.10;;;;;;5118699;28;20168;-79
2022/10/05 13:12:59;;;;;;;4.03;0.80;;;25.50;70.80;;;;;;5117946;28;20253;-83
2022/10/05 13:15:51;;;;;;;0.67;0.67;;;25.00;75.60;;;;;;5120046;28;20530;-83
2022/10/05 13:18:16;;;;;;;0.67;0.60;;;24.90;69.70;;;;;;5086183;28;20534;-85
2022/10/05 13:20:52;;;;;;;0.60;0.60;;;24.80;73.30;;;;;;5118894;28;20679;-83
2022/10/05 13:23:36;;;;;;;0.70;0.60;;;24.90;77.80;;;;;;5118734;28;20159;-83
2022/10/05 13:26:12;;;;;;;0.73;0.70;;;25.00;72.60;;;;;;5119309;28;20272;-83
2022/10/05 13:28:38;;;;;;;0.53;0.53;;;24.90;73.30;;;;;;5117645;28;20176;-83
2022/10/05 13:31:26;;;;;;;1.03;0.63;;;24.90;69.40;;;;;;5117626;28;20300;-84
2022/10/05 13:33:59;;;;;;;1.13;0.70;;;24.90;75.10;;;;;;5112698;28;20192;-85
2022/10/05 13:36:41;;;;;;;2.63;0.80;;;25.30;76.90;;;;;;5121396;28;20183;-85
2022/10/05 13:39:24;;;;;;;1.70;0.70;;;25.40;69.70;;;;;;5118240;28;20637;-84
2022/10/05 13:42:03;;;;;;;0.50;0.50;;;25.60;70.70;;;;;;5118967;28;20167;-85
2022/10/05 13:44:44;;;;;;;0.53;0.53;;;25.90;80.30;;;;;;5118994;28;20164;-86
2022/10/05 13:47:09;;;;;;;0.70;0.70;;;26.20;73.20;;;;;;5115819;28;20224;-85
2022/10/05 13:49:48;;;;;;;2.27;0.80;;;26.10;76.70;;;;;;5118477;28;20277;-83
2022/10/05 13:52:44;;;;;;;1.50;0.93;;;26.00;73.70;;;;;;5118552;28;20268;-86
2022/10/05 13:55:33;;;;;;;12.13;1.37;;;25.00;79.30;;;;;;5117061;28;20227;-84
2022/10/05 13:58:11;;;;;;;1.00;0.83;;;24.90;78.80;;;;;;5118490;28;20182;-86
2022/10/05 14:00:57;;;;;;;0.90;0.50;;;24.40;80.10;;;;;;5118284;28;20167;-85
2022/10/05 14:03:35;;;;;;;0.63;0.60;;;24.00;78.60;;;;;;5117035;28;20520;-84
2022/10/05 14:06:12;;;;;;;3.00;0.67;;;23.60;75.60;;;;;;5118053;28;20207;-84
2022/10/05 14:08:51;;;;;;;0.50;0.50;;;23.70;74.90;;;;;;5116718;28;20533;-86
2022/10/05 14:11:35;;;;;;;1.03;0.53;;;23.60;76.90;;;;;;5117256;28;20217;-85
2022/10/05 14:14:15;;;;;;;1.03;0.70;;;23.50;79.40;;;;;;5118360;28;20172;-85
2022/10/05 14:16:59;;;;;;;1.23;0.50;;;23.20;76.60;;;;;;5116631;28;20283;-84
2022/10/05 14:19:32;;;;;;;0.73;0.50;;;23.20;78.10;;;;;;5116788;28;20182;-87
2022/10/05 14:22:10;;;;;;;2.00;0.50;;;23.10;78.80;;;;;;5118302;28;20169;-84
2022/10/05 14:24:45;;;;;;;1.57;0.80;;;22.90;82.00;;;;;;5118188;28;20186;-86
2022/10/05 14:27:23;;;;;;;0.63;0.60;;;22.80;83.00;;;;;;5116182;28;20202;-85
2022/10/05 14:30:18;;;;;;;0.80;0.53;;;22.60;81.40;;;;;;5119535;28;20180;-85
2022/10/05 14:33:01;;;;;;;1.70;0.60;;;22.50;81.70;;;;;;5118570;28;20618;-86
2022/10/05 14:35:30;;;;;;;2.50;0.67;;;22.30;82.10;;;;;;5118818;28;20213;-87
2022/10/05 14:37:59;;;;;;;1.67;0.97;;;22.30;80.20;;;;;;5118332;28;20176;-84
2022/10/05 14:40:34;;;;;;;1.97;0.63;;;22.20;84.70;;;;;;5118782;28;20179;-85
2022/10/05 14:43:15;;;;;;;1.57;0.70;;;22.20;91.50;;;;;;5116720;28;20190;-86
2022/10/05 14:46:12;;;;;;;1.03;0.70;;;22.10;84.30;;;;;;5119359;28;20573;-86
2022/10/05 14:48:43;;;;;;;1.00;0.77;;;22.10;84.60;;;;;;5117806;28;20171;-87
2022/10/05 14:51:11;;;;;;;1.67;1.07;;;22.00;82.10;;;;;;5118447;28;20297;-87
2022/10/05 14:53:44;;;;;;;2.17;0.60;;;21.90;83.70;;;;;;5119374;28;20176;-85
2022/10/05 14:56:35;;;;;;;2.20;0.80;;;21.80;84.60;;;;;;5121963;28;20199;-81
2022/10/05 14:59:09;;;;;;;1.00;0.80;;;21.80;83.40;;;;;;5137898;28;20175;-80
2022/10/05 15:01:43;;;;;;;1.00;0.80;;;21.70;81.40;;;;;;5137091;28;20175;-82
2022/10/05 15:04:19;;;;;;;1.03;0.90;;;21.70;82.10;;;;;;5138004;28;20235;-81
2022/10/05 15:07:18;;;;;;;1.17;0.93;;;21.60;80.50;;;;;;5125385;28;20698;-85
2022/10/05 15:09:56;;;;;;;1.07;0.63;;;21.50;85.10;;;;;;5116645;28;20182;-81
2022/10/05 15:12:34;;;;;;;1.53;0.83;;;21.30;83.70;;;;;;5116853;28;20240;-81
2022/10/05 15:15:28;;;;;;;1.83;0.90;;;21.10;82.00;;;;;;5117914;28;20188;-84
2022/10/05 15:17:59;;;;;;;2.50;0.97;;;21.00;83.60;;;;;;5118735;28;20167;-83
2022/10/05 15:20:44;;;;;;;1.20;0.90;;;20.90;83.20;;;;;;5119459;28;20180;-86
2022/10/05 15:23:10;;;;;;;2.33;1.00;;;20.80;81.80;;;;;;5116173;28;20550;-85
2022/10/05 15:25:44;;;;;;;4.17;1.00;;;20.70;82.20;;;;;;5118042;28;20194;-85
2022/10/05 15:28:25;;;;;;;3.70;1.20;;;20.60;85.80;;;;;;5115379;28;20272;-85
2022/10/05 15:31:02;;;;;;;1.83;1.30;;;20.60;82.70;;;;;;5116007;28;20203;-85
2022/10/05 15:33:49;;;;;;;2.17;1.10;;;20.50;81.50;;;;;;5119989;28;20179;-86
2022/10/05 15:36:23;;;;;;;1.30;1.20;;;20.50;81.80;;;;;;5120204;28;20198;-85
2022/10/05 15:39:07;;;;;;;2.13;1.33;;;20.40;80.40;;;;;;5121522;27;20182;-83
2022/10/05 15:41:35;;;;;;;2.87;1.23;;;20.30;80.90;;;;;;5120906;28;20620;-87
2022/10/05 15:44:12;;;;;;;1.00;0.90;;;20.20;78.90;;;;;;5121021;28;20185;-86
2022/10/05 15:47:05;;;;;;;1.73;1.00;;;20.10;79.80;;;;;;5119769;28;20199;-87
2022/10/05 15:50:03;;;;;;;1.63;1.17;;;20.00;81.30;;;;;;5117031;28;20216;-86
2022/10/05 15:52:34;;;;;;;1.70;1.17;;;19.90;81.00;;;;;;5119462;28;20174;-84
2022/10/05 15:55:21;;;;;;;1.40;1.10;;;19.90;80.70;;;;;;5120241;28;20632;-83
2022/10/05 15:58:07;;;;;;;1.53;1.00;;;19.80;84.90;;;;;;5120788;28;20195;-84
2022/10/05 16:00:43;;;;;;;1.20;1.10;;;19.70;83.40;;;;;;5119292;28;20224;-85
2022/10/05 16:03:25;;;;;;;1.70;1.30;;;19.60;83.90;;;;;;5120737;28;20173;-85
2022/10/05 16:09:13;;;;;;;2.90;1.33;;;19.50;84.80;;;;;;5120857;28;20245;-84
2022/10/05 16:12:17;;;;;;;9.03;1.50;;;19.30;84.00;;;;;;5087784;28;20220;-83
2022/10/05 16:15:01;;;;;;;1.37;1.10;;;19.20;85.50;;;;;;5078015;28;20232;-84
2022/10/05 16:17:46;;;;;;;1.00;0.90;;;19.20;87.50;;;;;;5060480;28;20182;-85
2022/10/05 16:20:31;;;;;;;1.60;1.27;;;19.10;86.60;;;;;;5108570;28;20717;-85
2022/10/05 16:23:31;;;;;;;2.90;1.10;;;18.90;86.20;;;;;;5119908;28;20174;-84
2022/10/05 16:26:17;;;;;;;2.10;1.17;;;18.80;87.10;;;;;;5119368;28;20541;-86
2022/10/05 16:29:04;;;;;;;1.23;1.13;;;18.80;86.90;;;;;;5119346;28;20582;-85
2022/10/05 16:32:01;;;;;;;2.87;1.40;;;18.70;88.20;;;;;;5119870;28;20196;-83
2022/10/05 16:34:45;;;;;;;1.33;1.23;;;18.60;88.50;;;;;;5119992;28;20599;-82
2022/10/05 16:37:28;;;;;;;3.60;1.37;;;18.50;89.00;;;;;;5118527;28;20241;-84
2022/10/05 16:39:53;;;;;;;1.87;1.67;;;18.50;90.60;;;;;;5120159;28;20184;-84
2022/10/05 16:42:25;;;;;;;1.40;1.20;;;18.30;91.10;;;;;;5118921;28;20665;-84
2022/10/05 16:45:09;;;;;;;3.80;1.00;;;18.20;91.80;;;;;;5122265;28;20168;-82
2022/10/05 16:47:50;;;;;;;3.00;1.40;;;18.10;93.00;;;;;;5120171;27;20175;-84
2022/10/05 16:50:57;;;;;;;2.40;1.37;;;17.90;91.60;;;;;;5132756;28;20151;-82
2022/10/05 16:53:39;;;;;;;4.73;1.70;;;17.80;92.20;;;;;;5120950;28;20228;-82
2022/10/05 16:56:27;;;;;;;2.93;1.50;;;17.70;92.40;;;;;;5117843;28;20218;-81
2022/10/05 16:59:31;;;;;;;3.97;2.37;;;17.60;93.80;;;;;;5118933;28;20160;-82
2022/10/05 17:02:07;;;;;;;4.73;2.00;;;17.50;93.10;;;;;;5117520;28;20184;-83
2022/10/05 17:04:47;;;;;;;2.17;1.63;;;17.40;93.60;;;;;;5117589;28;20171;-82
2022/10/05 17:07:47;;;;;;;3.10;1.67;;;17.40;93.40;;;;;;5118325;28;20203;-84
2022/10/05 17:10:49;;;;;;;2.20;1.70;;;17.30;94.10;;;;;;5118486;28;20548;-83
2022/10/05 17:13:30;;;;;;;2.50;1.47;;;17.20;94.60;;;;;;5119997;28;20186;-82
2022/10/05 17:16:09;;;;;;;3.13;1.70;;;17.10;94.30;;;;;;5118089;28;20195;-83
2022/10/05 17:19:03;;;;;;;3.00;1.50;;;17.00;94.70;;;;;;5117722;28;20175;-83
2022/10/05 17:22:17;;;;;;;3.50;2.37;;;16.90;94.90;;;;;;5119578;28;20190;-83
2022/10/05 17:24:48;;;;;;;4.37;2.70;;;16.90;95.10;;;;;;5111427;28;20184;-83
2022/10/05 17:27:55;;;;;;;3.43;2.07;;;16.70;95.20;;;;;;5119234;28;20267;-84
2022/10/05 17:30:47;;;;;;;2.50;1.70;;;16.70;95.40;;;;;;5119397;28;20176;-83
2022/10/05 17:33:21;;;;;;;1.97;1.73;;;16.60;95.90;;;;;;5118446;28;20167;-84
2022/10/05 17:36:00;;;;;;;3.47;2.10;;;16.50;96.00;;;;;;5120161;28;20220;-84
2022/10/05 17:38:34;;;;;;;6.57;2.40;;;16.40;96.20;;;;;;5120258;28;20510;-85
2022/10/05 17:41:02;;;;;;;2.60;2.03;;;16.40;96.50;;;;;;5120428;28;20174;-82
2022/10/05 17:43:31;;;;;;;3.03;2.23;;;16.30;96.50;;;;;;5120289;27;20176;-81
2022/10/05 17:45:59;;;;;;;5.97;2.10;;;16.20;97.00;;;;;;5119290;28;20211;-83
2022/10/05 17:48:36;;;;;;;2.00;1.80;;;16.20;97.20;;;;;;5120136;28;20183;-83
2022/10/05 17:57:04;;;;;;;3.53;1.80;;;15.90;97.70;;;;;;5122110;28;20566;-83
2022/10/05 17:59:45;;;;;;;2.90;2.40;;;15.90;98.10;;;;;;5121641;28;20231;-85
2022/10/05 18:02:38;;;;;;;3.07;2.60;;;15.80;98.10;;;;;;5121100;28;20179;-85
2022/10/05 18:05:15;;;;;;;3.47;1.77;;;15.70;98.60;;;;;;5122195;28;20171;-83
2022/10/05 18:08:15;;;;;;;1.80;1.60;;;15.70;98.50;;;;;;5122648;28;20175;-85
2022/10/05 18:11:08;;;;;;;5.30;2.30;;;15.70;99.90;;;;;;5115949;28;20245;-84
2022/10/05 18:13:40;;;;;;;4.93;2.80;;;15.70;99.90;;;;;;5119500;28;20180;-84
2022/10/05 18:16:09;;;;;;;4.70;3.40;;;15.50;99.90;;;;;;5119154;28;20665;-83
2022/10/05 18:18:53;;;;;;;13.80;9.53;;;15.40;99.90;;;;;;5118240;28;20191;-84
2022/10/05 18:21:34;;;;;;;30.27;19.00;;;15.30;99.90;;;;;;5120294;28;20175;-83
2022/10/05 18:24:26;;;;;;;35.97;24.07;;;15.20;99.90;;;;;;5118371;28;20180;-85
2022/10/05 18:27:13;;;;;;;37.50;24.17;;;15.10;99.90;;;;;;5117997;28;20199;-83
2022/10/05 18:30:18;;;;;;;51.00;34.97;;;15.10;99.90;;;;;;5118688;28;20186;-83
2022/10/05 18:33:14;;;;;;;61.30;38.43;;;15.10;99.90;;;;;;5110595;28;20202;-84
2022/10/05 18:35:46;;;;;;;25.93;18.23;;;15.00;99.90;;;;;;5117484;28;20198;-83
2022/10/05 18:38:26;;;;;;;8.33;5.40;;;14.90;99.90;;;;;;5118556;28;20228;-84
2022/10/05 18:41:09;;;;;;;4.97;3.70;;;14.80;99.90;;;;;;5116993;28;20186;-84
2022/10/05 18:43:49;;;;;;;7.53;2.27;;;14.80;99.90;;;;;;5117099;28;20262;-83
2022/10/05 18:46:20;;;;;;;3.20;1.90;;;14.80;99.90;;;;;;5118406;28;20197;-82
2022/10/05 18:48:55;;;;;;;3.00;2.07;;;14.80;99.90;;;;;;5115772;28;20617;-82
2022/10/05 18:51:36;;;;;;;3.63;2.60;;;14.70;99.90;;;;;;5117203;28;20605;-84
2022/10/05 18:54:26;;;;;;;3.87;2.77;;;14.70;99.90;;;;;;5116272;28;20507;-83
2022/10/05 18:56:52;;;;;;;4.57;2.23;;;14.70;99.90;;;;;;5116693;28;20219;-83
2022/10/05 18:59:56;;;;;;;3.23;2.63;;;14.70;99.90;;;;;;5115506;28;20172;-85
2022/10/05 19:02:41;;;;;;;7.23;2.90;;;14.70;99.90;;;;;;5116118;28;20183;-83
2022/10/05 19:05:21;;;;;;;3.73;2.70;;;14.70;99.90;;;;;;5116713;28;20159;-84
2022/10/05 19:08:07;;;;;;;4.60;2.87;;;14.70;99.90;;;;;;5117057;28;20159;-83
2022/10/05 19:10:43;;;;;;;2.93;2.00;;;14.60;99.90;;;;;;5115500;28;20215;-83
2022/10/05 19:13:24;;;;;;;3.57;2.67;;;14.60;99.90;;;;;;5116752;28;20151;-84
2022/10/05 19:16:21;;;;;;;6.57;3.33;;;14.50;99.90;;;;;;5115449;28;20203;-83
2022/10/05 19:19:42;;;;;;;3.17;2.10;;;14.50;99.90;;;;;;5117118;28;20189;-84
2022/10/05 19:22:23;;;;;;;2.97;2.50;;;14.40;99.90;;;;;;5057300;28;20184;-84
2022/10/05 19:25:14;;;;;;;3.50;2.13;;;14.40;99.90;;;;;;5116311;28;20156;-84
2022/10/05 19:27:57;;;;;;;2.03;1.77;;;14.30;99.90;;;;;;5116203;28;20663;-85
2022/10/05 19:30:28;;;;;;;1.70;1.60;;;14.30;99.90;;;;;;5116486;28;20163;-84
2022/10/05 19:32:57;;;;;;;2.83;1.60;;;14.20;99.90;;;;;;5115411;28;20681;-84
2022/10/05 19:35:37;;;;;;;2.53;1.80;;;14.10;99.90;;;;;;5116774;28;20217;-82
2022/10/05 19:38:25;;;;;;;3.27;1.87;;;14.10;99.90;;;;;;5116536;28;20195;-83
2022/10/05 19:40:58;;;;;;;2.30;1.70;;;14.00;99.90;;;;;;5115701;28;20179;-84
2022/10/05 19:43:35;;;;;;;2.43;1.60;;;14.00;99.90;;;;;;5115508;28;20541;-84
2022/10/05 19:46:26;;;;;;;4.23;1.60;;;14.00;99.90;;;;;;5116170;28;20203;-84
2022/10/05 19:48:53;;;;;;;1.93;1.60;;;13.80;99.90;;;;;;5116811;28;20183;-84
2022/10/05 19:51:29;;;;;;;2.97;1.87;;;13.80;99.90;;;;;;5115895;28;20207;-83
2022/10/05 19:54:01;;;;;;;2.47;1.97;;;13.70;99.90;;;;;;5116241;28;20545;-84
2022/10/05 19:56:31;;;;;;;3.07;2.10;;;13.60;99.90;;;;;;5117148;28;20187;-83
2022/10/05 19:59:12;;;;;;;9.33;2.77;;;13.40;99.90;;;;;;5116858;28;20610;-85
2022/10/05 20:01:39;;;;;;;4.43;2.10;;;13.20;99.90;;;;;;5117612;28;20184;-82
2022/10/05 20:04:05;;;;;;;5.57;3.33;;;13.10;99.90;;;;;;5115455;28;20179;-83
2022/10/05 20:06:32;;;;;;;8.30;5.27;;;13.00;99.90;;;;;;5116263;28;20210;-83
2022/10/05 20:09:00;;;;;;;10.23;5.60;;;12.90;99.90;;;;;;5116580;28;20175;-83
2022/10/05 20:11:27;;;;;;;9.73;5.80;;;12.80;99.90;;;;;;5115338;28;20242;-84
2022/10/05 20:13:57;;;;;;;25.93;13.23;;;12.60;99.90;;;;;;5117634;28;20172;-84
2022/10/05 20:22:45;;;;;;;16.87;9.80;;;12.40;99.90;;;;;;5139696;28;20250;-80
2022/10/05 20:25:16;;;;;;;20.20;10.57;;;12.30;99.90;;;;;;5122309;28;20178;-84
2022/10/05 20:27:50;;;;;;;19.20;9.00;;;12.20;99.90;;;;;;5119969;28;20178;-85
2022/10/05 20:30:19;;;;;;;12.67;8.17;;;12.10;99.90;;;;;;5119828;28;20637;-83
2022/10/05 20:32:49;;;;;;;6.63;4.50;;;12.00;99.90;;;;;;5120336;28;20188;-84
2022/10/05 20:35:16;;;;;;;4.00;3.30;;;12.10;99.90;;;;;;5122226;28;20241;-83
2022/10/05 20:37:42;;;;;;;4.93;2.87;;;12.10;99.90;;;;;;5120440;28;20170;-85
2022/10/05 20:40:09;;;;;;;4.80;2.23;;;12.30;99.90;;;;;;5121448;28;20167;-81
2022/10/05 20:42:35;;;;;;;3.07;1.67;;;12.40;99.90;;;;;;5122264;28;20274;-85
2022/10/05 20:45:02;;;;;;;4.67;1.90;;;12.50;99.90;;;;;;5121396;28;20215;-84
2022/10/05 20:47:28;;;;;;;2.33;1.70;;;12.50;99.90;;;;;;5119945;28;20183;-84
2022/10/05 20:49:54;;;;;;;2.60;1.77;;;12.70;99.90;;;;;;5120217;28;20234;-84
2022/10/05 20:52:21;;;;;;;4.47;1.47;;;12.80;99.90;;;;;;5120000;28;20195;-84
2022/10/05 20:54:46;;;;;;;6.03;1.87;;;12.90;99.90;;;;;;5119742;28;20176;-83
2022/10/05 20:57:12;;;;;;;2.70;1.60;;;13.00;99.90;;;;;;5117640;28;20202;-83
2022/10/05 20:59:38;;;;;;;2.27;1.47;;;13.00;99.90;;;;;;5118230;28;20592;-84
2022/10/05 21:02:04;;;;;;;2.60;1.80;;;13.10;99.90;;;;;;5119226;28;20176;-83
2022/10/05 21:04:34;;;;;;;8.33;2.10;;;13.20;99.90;;;;;;5118409;28;20176;-83
2022/10/05 21:07:04;;;;;;;5.00;1.70;;;13.30;99.90;;;;;;5119251;28;20191;-84
2022/10/05 21:09:31;;;;;;;2.70;1.80;;;13.30;99.90;;;;;;5119156;28;20176;-83